Time;durP1;ratioP1;P1;durP2;ratioP2;P2;SDS_P1;SDS_P2;PMS_P1;PMS_P2;Temp;Humidity;BMP_temperature;BMP_pressure;BME280_temperature;BME280_humidity;BME280_pressure;Samples;Min_cycle;Max_cycle;Signal;HPM_P1;HPM_P2
2023/05/05 00:00:56;;;;;;;12.23;6.13;;;;;;;;;;5074782;28;20031;-78
2023/05/05 00:03:25;;;;;;;11.25;6.13;;;;;;;;;;5074316;28;20033;-80
2023/05/05 00:05:53;;;;;;;11.65;6.07;;;;;;;;;;5065976;28;20070;-78
2023/05/05 00:08:19;;;;;;;15.40;7.07;;;;;;;;;;5055818;28;20041;-79
2023/05/05 00:10:46;;;;;;;14.30;6.10;;;;;;;;;;5055174;28;20066;-78
2023/05/05 00:13:13;;;;;;;10.30;6.25;;;;;;;;;;5056117;28;20024;-79
2023/05/05 00:15:42;;;;;;;14.88;6.07;;;;;;;;;;5062428;28;20054;-79
2023/05/05 00:18:08;;;;;;;16.48;6.78;;;;;;;;;;5075934;28;20035;-79
2023/05/05 00:20:34;;;;;;;10.05;5.78;;;;;;;;;;5093470;28;20020;-79
2023/05/05 00:23:00;;;;;;;11.32;6.70;;;;;;;;;;5074818;28;20081;-80
2023/05/05 00:25:26;;;;;;;11.02;6.30;;;;;;;;;;5093398;28;20024;-79
2023/05/05 00:27:52;;;;;;;11.48;6.18;;;;;;;;;;5074835;28;20031;-79
2023/05/05 00:30:17;;;;;;;12.23;6.90;;;;;;;;;;5074837;28;20732;-79
2023/05/05 00:32:46;;;;;;;13.00;7.15;;;;;;;;;;5075047;28;20028;-79
2023/05/05 00:35:11;;;;;;;11.68;7.60;;;;;;;;;;5092941;28;20035;-79
2023/05/05 00:37:37;;;;;;;14.10;6.22;;;;;;;;;;5074409;28;20408;-80
2023/05/05 00:40:02;;;;;;;12.73;7.88;;;;;;;;;;5092426;28;20032;-79
2023/05/05 00:42:41;;;;;;;16.15;7.47;;;;;;;;;;5092572;28;20043;-78
2023/05/05 00:45:08;;;;;;;12.73;7.30;;;;;;;;;;5074643;28;20032;-80
2023/05/05 00:47:34;;;;;;;16.13;7.53;;;;;;;;;;5074021;28;20391;-77
2023/05/05 00:50:00;;;;;;;11.52;6.75;;;;;;;;;;5075052;28;20016;-78
2023/05/05 00:52:25;;;;;;;12.70;6.97;;;;;;;;;;5092824;28;20028;-79
2023/05/05 00:54:52;;;;;;;13.60;6.72;;;;;;;;;;5074654;28;20441;-78
2023/05/05 00:57:18;;;;;;;13.80;7.85;;;;;;;;;;5092637;28;20348;-78
2023/05/05 00:59:45;;;;;;;17.83;7.65;;;;;;;;;;5074495;28;20043;-77
2023/05/05 01:02:10;;;;;;;12.88;7.22;;;;;;;;;;5091625;28;20051;-78
2023/05/05 01:04:36;;;;;;;12.23;7.50;;;;;;;;;;5092880;28;20420;-79
2023/05/05 01:07:21;;;;;;;14.57;7.40;;;;;;;;;;5074387;28;20024;-79
2023/05/05 01:10:02;;;;;;;18.98;8.38;;;;;;;;;;5073804;28;20024;-79
2023/05/05 01:12:40;;;;;;;13.00;7.25;;;;;;;;;;5091923;28;20657;-78
2023/05/05 01:15:31;;;;;;;13.13;7.35;;;;;;;;;;5074043;28;20039;-79
2023/05/05 01:18:05;;;;;;;12.65;7.85;;;;;;;;;;5054042;28;20039;-78
2023/05/05 01:20:47;;;;;;;20.05;9.00;;;;;;;;;;5055922;28;20426;-80
2023/05/05 01:23:32;;;;;;;35.67;11.45;;;;;;;;;;5092295;28;20384;-79
2023/05/05 01:26:20;;;;;;;14.07;8.25;;;;;;;;;;5092203;28;20115;-79
2023/05/05 01:29:23;;;;;;;13.77;7.70;;;;;;;;;;5092182;28;20080;-77
2023/05/05 01:31:52;;;;;;;22.58;19.67;;;;;;;;;;5078983;28;20103;-78
2023/05/05 01:34:40;;;;;;;17.30;9.70;;;;;;;;;;5072279;28;20078;-79
2023/05/05 01:37:21;;;;;;;19.35;9.48;;;;;;;;;;5056871;28;20025;-78
2023/05/05 01:39:51;;;;;;;13.35;7.72;;;;;;;;;;5054500;28;20480;-80
2023/05/05 01:42:19;;;;;;;16.13;8.25;;;;;;;;;;5053764;28;20032;-79
2023/05/05 01:44:55;;;;;;;12.73;7.18;;;;;;;;;;5037110;28;20028;-78
2023/05/05 01:47:22;;;;;;;14.77;8.52;;;;;;;;;;5067207;28;20059;-79
2023/05/05 01:49:49;;;;;;;17.70;7.93;;;;;;;;;;5071527;28;20086;-77
2023/05/05 01:52:17;;;;;;;13.50;7.43;;;;;;;;;;5071043;28;20056;-78
2023/05/05 01:54:46;;;;;;;16.80;8.13;;;;;;;;;;5071088;28;20087;-79
2023/05/05 01:57:14;;;;;;;17.67;8.23;;;;;;;;;;5086129;28;20115;-78
2023/05/05 01:59:40;;;;;;;15.35;8.10;;;;;;;;;;5073125;28;20034;-78
2023/05/05 02:02:09;;;;;;;18.85;8.38;;;;;;;;;;5060013;28;20029;-79
2023/05/05 02:04:39;;;;;;;15.98;7.70;;;;;;;;;;5053129;28;20103;-78
2023/05/05 02:07:06;;;;;;;17.95;8.05;;;;;;;;;;5066568;28;20195;-80
2023/05/05 02:09:33;;;;;;;15.02;8.15;;;;;;;;;;5073336;28;20039;-78
2023/05/05 02:12:01;;;;;;;15.75;8.45;;;;;;;;;;5090306;28;20050;-80
2023/05/05 02:14:29;;;;;;;17.35;7.95;;;;;;;;;;5092125;28;20024;-78
2023/05/05 02:16:58;;;;;;;14.63;8.43;;;;;;;;;;5080379;28;20024;-78
2023/05/05 02:19:29;;;;;;;15.57;8.73;;;;;;;;;;5053536;28;20102;-80
2023/05/05 02:21:55;;;;;;;16.05;8.20;;;;;;;;;;5063349;28;20468;-79
2023/05/05 02:24:20;;;;;;;15.93;7.88;;;;;;;;;;5072167;28;20039;-79
2023/05/05 02:26:49;;;;;;;15.27;8.43;;;;;;;;;;5073193;28;20044;-79
2023/05/05 02:29:21;;;;;;;15.43;8.10;;;;;;;;;;5064150;28;20021;-79
2023/05/05 02:31:52;;;;;;;13.85;7.75;;;;;;;;;;5080170;28;20400;-78
2023/05/05 02:34:25;;;;;;;15.88;8.02;;;;;;;;;;5064442;28;20525;-78
2023/05/05 02:36:54;;;;;;;19.25;9.07;;;;;;;;;;5071153;28;20424;-78
2023/05/05 02:39:30;;;;;;;11.82;7.78;;;;;;;;;;5053083;28;20499;-78
2023/05/05 02:42:01;;;;;;;13.18;8.35;;;;;;;;;;5063048;28;20023;-78
2023/05/05 02:44:30;;;;;;;13.73;8.57;;;;;;;;;;5092196;28;20165;-79
2023/05/05 02:46:57;;;;;;;16.85;8.93;;;;;;;;;;5082109;28;20032;-78
2023/05/05 02:49:23;;;;;;;21.15;9.18;;;;;;;;;;5071304;28;20472;-79
2023/05/05 02:51:49;;;;;;;15.95;8.15;;;;;;;;;;5061166;28;20039;-77
2023/05/05 02:54:14;;;;;;;17.70;8.77;;;;;;;;;;5091636;28;20048;-79
2023/05/05 02:56:47;;;;;;;18.90;9.13;;;;;;;;;;5084797;28;20036;-79
2023/05/05 02:59:33;;;;;;;17.85;8.80;;;;;;;;;;5053535;28;20074;-78
2023/05/05 03:02:20;;;;;;;17.80;8.48;;;;;;;;;;5062122;28;20040;-78
2023/05/05 03:04:59;;;;;;;15.57;8.70;;;;;;;;;;5073176;28;20054;-79
2023/05/05 03:07:29;;;;;;;18.98;9.27;;;;;;;;;;5072462;28;20485;-79
2023/05/05 03:10:05;;;;;;;16.15;8.85;;;;;;;;;;5073258;28;20020;-79
2023/05/05 03:12:38;;;;;;;19.08;9.27;;;;;;;;;;5091155;28;20357;-79
2023/05/05 03:15:08;;;;;;;24.43;9.90;;;;;;;;;;5073050;28;20065;-78
2023/05/05 03:17:35;;;;;;;18.67;8.52;;;;;;;;;;5078095;28;20056;-78
2023/05/05 03:20:04;;;;;;;14.27;8.70;;;;;;;;;;5052463;28;20122;-78
2023/05/05 03:22:29;;;;;;;18.65;8.98;;;;;;;;;;5070601;28;20025;-79
2023/05/05 03:24:55;;;;;;;15.35;9.73;;;;;;;;;;5036670;28;20031;-79
2023/05/05 03:27:20;;;;;;;18.37;8.90;;;;;;;;;;5053558;28;20066;-80
2023/05/05 03:29:46;;;;;;;18.27;9.47;;;;;;;;;;5071340;28;20032;-79
2023/05/05 03:32:11;;;;;;;19.93;9.77;;;;;;;;;;5080045;28;20035;-78
2023/05/05 03:34:37;;;;;;;20.67;11.27;;;;;;;;;;5072787;28;20488;-79
2023/05/05 03:37:03;;;;;;;16.33;9.20;;;;;;;;;;5092757;28;20418;-79
2023/05/05 03:39:28;;;;;;;15.03;8.50;;;;;;;;;;5094421;28;20338;-78
2023/05/05 03:41:54;;;;;;;16.70;8.73;;;;;;;;;;5094031;28;20107;-80
2023/05/05 03:44:19;;;;;;;17.17;9.40;;;;;;;;;;5094495;28;20027;-79
2023/05/05 03:46:45;;;;;;;15.27;9.40;;;;;;;;;;5089650;28;20094;-79
2023/05/05 03:49:10;;;;;;;15.10;9.85;;;;;;;;;;5074407;28;20063;-79
2023/05/05 03:51:36;;;;;;;22.17;10.13;;;;;;;;;;5077343;28;20024;-79
2023/05/05 03:54:02;;;;;;;16.75;8.88;;;;;;;;;;5075293;28;20043;-79
2023/05/05 03:56:27;;;;;;;26.03;11.60;;;;;;;;;;5074162;28;20475;-79
2023/05/05 03:58:53;;;;;;;18.37;8.60;;;;;;;;;;5055136;28;20483;-79
2023/05/05 04:01:18;;;;;;;16.00;8.85;;;;;;;;;;5073789;28;20020;-80
2023/05/05 04:03:44;;;;;;;17.30;9.80;;;;;;;;;;5055222;28;20035;-80
2023/05/05 04:06:10;;;;;;;16.63;8.80;;;;;;;;;;5073681;28;20028;-79
2023/05/05 04:08:36;;;;;;;18.67;9.73;;;;;;;;;;5038574;28;20372;-78
2023/05/05 04:11:01;;;;;;;21.10;9.40;;;;;;;;;;5055638;28;20078;-79
2023/05/05 04:13:28;;;;;;;19.48;9.40;;;;;;;;;;5072896;28;20035;-77
2023/05/05 04:15:54;;;;;;;34.23;11.73;;;;;;;;;;5093778;28;20032;-79
2023/05/05 04:18:20;;;;;;;21.67;10.60;;;;;;;;;;5093759;28;20081;-80
2023/05/05 04:20:46;;;;;;;20.47;10.23;;;;;;;;;;5093779;28;20032;-78
2023/05/05 04:23:11;;;;;;;19.67;9.60;;;;;;;;;;5060613;28;20399;-78
2023/05/05 04:25:37;;;;;;;39.67;11.90;;;;;;;;;;5055281;28;20032;-79
2023/05/05 04:28:03;;;;;;;18.40;10.53;;;;;;;;;;5055027;28;20078;-80
2023/05/05 04:30:29;;;;;;;18.23;9.60;;;;;;;;;;5055112;28;20123;-80
2023/05/05 04:32:55;;;;;;;22.55;10.18;;;;;;;;;;5055132;28;20195;-79
2023/05/05 04:35:21;;;;;;;21.08;10.65;;;;;;;;;;5073483;28;20084;-79
2023/05/05 04:37:46;;;;;;;24.50;9.27;;;;;;;;;;5072803;28;20032;-80
2023/05/05 04:40:12;;;;;;;19.50;10.33;;;;;;;;;;5054883;28;20024;-78
2023/05/05 04:42:37;;;;;;;22.98;11.25;;;;;;;;;;5073040;28;20495;-80
2023/05/05 04:45:07;;;;;;;21.03;10.97;;;;;;;;;;5073181;28;20105;-81
2023/05/05 04:47:39;;;;;;;20.20;10.27;;;;;;;;;;5072271;28;20036;-79
2023/05/05 04:50:05;;;;;;;26.33;9.95;;;;;;;;;;5055105;28;20053;-79
2023/05/05 04:52:31;;;;;;;23.08;10.88;;;;;;;;;;5079793;28;20020;-79
2023/05/05 04:54:57;;;;;;;24.00;9.87;;;;;;;;;;5074457;28;20047;-79
2023/05/05 04:57:22;;;;;;;29.17;10.82;;;;;;;;;;5086511;28;20032;-79
2023/05/05 04:59:48;;;;;;;17.47;9.87;;;;;;;;;;5072814;28;20067;-79
2023/05/05 05:02:14;;;;;;;17.75;9.52;;;;;;;;;;5055385;28;20160;-79
2023/05/05 05:04:40;;;;;;;22.60;9.65;;;;;;;;;;5073033;28;20028;-79
2023/05/05 05:07:05;;;;;;;26.92;11.25;;;;;;;;;;5081467;28;20063;-78
2023/05/05 05:09:31;;;;;;;20.80;11.63;;;;;;;;;;5087266;28;20437;-77
2023/05/05 05:12:01;;;;;;;20.17;10.93;;;;;;;;;;5076550;28;20024;-80
2023/05/05 05:14:28;;;;;;;15.88;10.15;;;;;;;;;;5065636;28;20429;-79
2023/05/05 05:16:53;;;;;;;16.15;9.63;;;;;;;;;;5070409;28;20032;-80
2023/05/05 05:19:19;;;;;;;20.75;9.45;;;;;;;;;;5072250;28;20513;-79
2023/05/05 05:21:45;;;;;;;20.85;9.65;;;;;;;;;;5065816;28;20025;-81
2023/05/05 05:24:10;;;;;;;18.85;9.70;;;;;;;;;;5057904;28;20491;-80
2023/05/05 05:26:36;;;;;;;22.35;9.38;;;;;;;;;;5083074;28;20365;-77
2023/05/05 05:29:03;;;;;;;22.80;9.57;;;;;;;;;;5067569;28;20024;-78
2023/05/05 05:31:29;;;;;;;20.20;9.75;;;;;;;;;;5083593;28;20032;-79
2023/05/05 05:33:55;;;;;;;19.95;10.05;;;;;;;;;;5063738;28;20092;-82
2023/05/05 05:36:21;;;;;;;24.15;10.25;;;;;;;;;;5071201;28;20411;-78
2023/05/05 05:38:47;;;;;;;17.50;9.68;;;;;;;;;;5065822;28;20040;-79
2023/05/05 05:41:14;;;;;;;23.20;9.73;;;;;;;;;;5072714;28;20024;-79
2023/05/05 05:43:40;;;;;;;25.48;9.30;;;;;;;;;;5066235;28;20024;-81
2023/05/05 05:46:07;;;;;;;17.00;9.80;;;;;;;;;;5069422;28;20109;-80
2023/05/05 05:48:33;;;;;;;18.75;9.73;;;;;;;;;;5089232;28;20065;-79
2023/05/05 05:50:58;;;;;;;34.47;10.82;;;;;;;;;;5092071;28;20367;-78
2023/05/05 05:53:25;;;;;;;21.52;9.30;;;;;;;;;;5082025;28;20047;-79
2023/05/05 05:55:51;;;;;;;19.40;10.20;;;;;;;;;;5050694;28;20040;-80
2023/05/05 05:58:18;;;;;;;19.48;9.23;;;;;;;;;;5083241;28;20031;-79
2023/05/05 06:00:44;;;;;;;20.17;10.20;;;;;;;;;;5074255;28;20024;-79
2023/05/05 06:03:13;;;;;;;16.92;9.57;;;;;;;;;;5062152;28;20143;-80
2023/05/05 06:05:39;;;;;;;16.10;10.13;;;;;;;;;;5065610;28;20111;-78
2023/05/05 06:08:05;;;;;;;21.90;9.57;;;;;;;;;;5063212;28;20119;-77
2023/05/05 06:10:30;;;;;;;24.15;11.68;;;;;;;;;;5080011;28;20382;-79
2023/05/05 06:12:56;;;;;;;33.28;11.30;;;;;;;;;;5082964;28;20027;-78
2023/05/05 06:15:22;;;;;;;23.50;10.48;;;;;;;;;;5043857;28;20668;-81
2023/05/05 06:17:47;;;;;;;19.35;10.77;;;;;;;;;;5060489;28;20376;-78
2023/05/05 06:20:13;;;;;;;20.98;10.02;;;;;;;;;;5064810;28;20055;-81
2023/05/05 06:22:40;;;;;;;21.05;10.88;;;;;;;;;;5085713;28;20089;-83
2023/05/05 06:25:06;;;;;;;19.48;11.57;;;;;;;;;;5037610;28;20044;-79
2023/05/05 06:27:32;;;;;;;17.38;10.45;;;;;;;;;;5046897;28;20043;-81
2023/05/05 06:29:58;;;;;;;18.83;10.50;;;;;;;;;;5050603;28;20044;-84
2023/05/05 06:32:23;;;;;;;19.38;10.10;;;;;;;;;;5048528;28;20024;-83
2023/05/05 06:34:49;;;;;;;20.70;8.95;;;;;;;;;;5044035;28;20047;-84
2023/05/05 06:37:14;;;;;;;21.38;8.90;;;;;;;;;;5066610;28;20131;-83
2023/05/05 06:39:40;;;;;;;23.38;9.90;;;;;;;;;;5044195;28;20032;-79
2023/05/05 06:42:09;;;;;;;20.17;11.85;;;;;;;;;;5067331;28;20433;-81
2023/05/05 06:44:35;;;;;;;18.00;8.68;;;;;;;;;;5048903;28;20060;-84
2023/05/05 06:47:01;;;;;;;15.70;9.75;;;;;;;;;;5070490;28;20029;-83
2023/05/05 06:49:27;;;;;;;20.23;8.55;;;;;;;;;;5052363;28;20067;-82
2023/05/05 06:51:53;;;;;;;18.30;9.30;;;;;;;;;;5073879;28;20028;-84
2023/05/05 06:54:19;;;;;;;20.33;9.30;;;;;;;;;;5068914;28;20495;-82
2023/05/05 06:56:45;;;;;;;18.77;8.77;;;;;;;;;;5051952;28;20063;-81
2023/05/05 06:59:11;;;;;;;14.20;8.50;;;;;;;;;;5074699;28;20028;-83
2023/05/05 07:01:39;;;;;;;15.88;8.60;;;;;;;;;;5065401;28;20037;-84
2023/05/05 07:04:05;;;;;;;18.63;8.43;;;;;;;;;;5063500;28;20465;-81
2023/05/05 07:06:31;;;;;;;17.23;9.10;;;;;;;;;;5045097;28;20101;-82
2023/05/05 07:08:57;;;;;;;21.20;8.13;;;;;;;;;;5041465;28;20032;-83
2023/05/05 07:11:25;;;;;;;14.32;8.07;;;;;;;;;;5063694;28;20020;-81
2023/05/05 07:13:51;;;;;;;21.70;10.55;;;;;;;;;;5069235;28;20085;-83
2023/05/05 07:16:16;;;;;;;21.50;9.05;;;;;;;;;;5062178;28;20048;-84
2023/05/05 07:18:44;;;;;;;26.48;8.45;;;;;;;;;;5066789;28;20033;-80
2023/05/05 07:21:09;;;;;;;21.38;8.55;;;;;;;;;;5055379;28;20109;-80
2023/05/05 07:23:36;;;;;;;17.52;7.95;;;;;;;;;;5043681;28;20036;-80
2023/05/05 07:26:03;;;;;;;18.65;8.45;;;;;;;;;;5066249;28;20039;-81
2023/05/05 07:28:28;;;;;;;16.77;8.20;;;;;;;;;;5070229;28;20037;-80
2023/05/05 07:30:58;;;;;;;21.08;8.52;;;;;;;;;;5051498;28;20029;-81
2023/05/05 07:33:24;;;;;;;23.05;9.38;;;;;;;;;;5052118;28;20032;-81
2023/05/05 07:36:12;;;;;;;22.98;8.82;;;;;;;;;;5046768;28;20047;-81
2023/05/05 07:38:49;;;;;;;16.08;8.32;;;;;;;;;;5067239;28;20086;-82
2023/05/05 07:41:15;;;;;;;21.02;8.80;;;;;;;;;;5071133;28;20040;-85
2023/05/05 07:43:40;;;;;;;15.75;8.85;;;;;;;;;;5048819;28;20044;-83
2023/05/05 07:46:06;;;;;;;17.55;8.10;;;;;;;;;;5046709;28;20040;-79
2023/05/05 07:48:32;;;;;;;16.73;9.40;;;;;;;;;;5050378;28;20024;-78
2023/05/05 07:50:58;;;;;;;17.65;9.45;;;;;;;;;;5051186;28;20047;-79
2023/05/05 07:53:27;;;;;;;20.60;9.15;;;;;;;;;;5043407;28;20453;-79
2023/05/05 07:55:53;;;;;;;19.02;9.98;;;;;;;;;;5041868;28;20147;-79
2023/05/05 07:58:19;;;;;;;18.67;9.68;;;;;;;;;;5043816;28;20048;-82
2023/05/05 08:00:44;;;;;;;17.98;9.68;;;;;;;;;;5053804;28;20346;-80
2023/05/05 08:03:10;;;;;;;16.83;8.40;;;;;;;;;;5043551;28;20036;-83
2023/05/05 08:05:37;;;;;;;17.92;9.30;;;;;;;;;;5041379;28;20044;-81
2023/05/05 08:08:03;;;;;;;16.30;8.18;;;;;;;;;;5043157;28;20035;-81
2023/05/05 08:10:28;;;;;;;18.38;9.43;;;;;;;;;;5043514;28;20029;-79
2023/05/05 08:12:54;;;;;;;12.57;7.97;;;;;;;;;;5046498;28;20036;-79
2023/05/05 08:15:20;;;;;;;15.13;8.05;;;;;;;;;;5042776;28;20028;-79
2023/05/05 08:17:47;;;;;;;18.08;7.75;;;;;;;;;;5048147;28;20055;-79
2023/05/05 08:20:13;;;;;;;17.80;7.80;;;;;;;;;;5037846;28;20028;-83
2023/05/05 08:22:41;;;;;;;16.80;7.88;;;;;;;;;;5044413;28;20490;-77
2023/05/05 08:25:07;;;;;;;14.82;6.93;;;;;;;;;;5042838;28;20381;-81
2023/05/05 08:27:34;;;;;;;16.88;7.78;;;;;;;;;;5044621;28;20042;-81
2023/05/05 08:30:00;;;;;;;19.42;9.02;;;;;;;;;;5044281;28;20028;-80
2023/05/05 08:32:26;;;;;;;21.73;7.22;;;;;;;;;;5046773;28;20517;-78
2023/05/05 08:34:51;;;;;;;15.95;7.55;;;;;;;;;;5043626;28;20040;-80
2023/05/05 08:37:17;;;;;;;18.17;11.35;;;;;;;;;;5047118;28;20056;-83
2023/05/05 08:39:43;;;;;;;19.30;6.95;;;;;;;;;;5025369;28;20131;-81
2023/05/05 08:42:09;;;;;;;19.65;9.50;;;;;;;;;;5023936;28;20051;-81
2023/05/05 08:44:35;;;;;;;14.07;6.70;;;;;;;;;;5041477;28;20041;-79
2023/05/05 08:47:10;;;;;;;19.67;8.30;;;;;;;;;;5044585;28;20032;-80
2023/05/05 08:49:47;;;;;;;13.77;7.05;;;;;;;;;;5044613;28;20032;-80
2023/05/05 08:52:23;;;;;;;13.27;6.13;;;;;;;;;;5041237;28;20032;-80
2023/05/05 08:54:59;;;;;;;13.52;6.53;;;;;;;;;;5040716;28;20544;-79
2023/05/05 08:57:36;;;;;;;17.10;6.30;;;;;;;;;;5042560;28;20036;-79
2023/05/05 09:00:03;;;;;;;14.93;6.70;;;;;;;;;;5038865;28;20550;-82
2023/05/05 09:02:29;;;;;;;12.63;6.00;;;;;;;;;;5044005;28;20480;-80
2023/05/05 09:04:55;;;;;;;13.90;6.60;;;;;;;;;;5041359;28;20067;-81
2023/05/05 09:07:21;;;;;;;21.58;6.28;;;;;;;;;;5043514;28;20064;-82
2023/05/05 09:09:48;;;;;;;11.25;5.43;;;;;;;;;;5047666;28;20037;-81
2023/05/05 09:12:14;;;;;;;18.40;7.05;;;;;;;;;;5049971;28;20028;-83
2023/05/05 09:14:40;;;;;;;9.93;6.32;;;;;;;;;;5040637;28;20387;-79
2023/05/05 09:17:20;;;;;;;12.80;6.13;;;;;;;;;;5045607;28;20029;-80
2023/05/05 09:20:07;;;;;;;15.70;6.45;;;;;;;;;;5043052;28;20436;-78
2023/05/05 09:22:44;;;;;;;10.50;6.13;;;;;;;;;;5044550;28;20059;-80
2023/05/05 09:25:15;;;;;;;12.57;5.88;;;;;;;;;;5044498;28;20033;-80
2023/05/05 09:27:48;;;;;;;15.43;6.22;;;;;;;;;;5039769;28;20125;-79
2023/05/05 09:30:23;;;;;;;12.75;5.95;;;;;;;;;;5037955;28;20029;-78
2023/05/05 09:32:50;;;;;;;14.85;5.95;;;;;;;;;;5047080;28;20043;-78
2023/05/05 09:35:17;;;;;;;8.68;5.72;;;;;;;;;;5043484;28;20660;-83
2023/05/05 09:37:44;;;;;;;9.38;5.35;;;;;;;;;;5041343;28;20028;-82
2023/05/05 09:40:11;;;;;;;6.63;4.72;;;;;;;;;;5037259;28;20025;-78
2023/05/05 09:42:38;;;;;;;13.10;5.85;;;;;;;;;;5042855;28;20459;-79
2023/05/05 09:45:24;;;;;;;18.02;9.60;;;;;;;;;;5041315;28;20033;-80
2023/05/05 09:47:49;;;;;;;9.80;6.47;;;;;;;;;;5044038;28;20037;-79
2023/05/05 09:50:17;;;;;;;9.52;5.78;;;;;;;;;;5039881;28;20431;-80
2023/05/05 09:52:56;;;;;;;17.17;11.90;;;;;;;;;;5033792;28;20031;-77
2023/05/05 09:55:24;;;;;;;15.75;6.43;;;;;;;;;;5056221;28;20028;-80
2023/05/05 09:57:50;;;;;;;11.30;5.30;;;;;;;;;;5042559;28;20043;-79
2023/05/05 10:00:16;;;;;;;8.20;4.78;;;;;;;;;;5066159;28;21768;-78
2023/05/05 10:02:41;;;;;;;13.25;5.25;;;;;;;;;;5066087;28;20107;-79
2023/05/05 10:05:17;;;;;;;7.35;4.95;;;;;;;;;;5062101;28;20141;-78
2023/05/05 10:07:45;;;;;;;7.95;5.90;;;;;;;;;;5047925;28;20020;-78
2023/05/05 10:10:14;;;;;;;7.85;4.38;;;;;;;;;;5048406;28;20032;-79
2023/05/05 10:12:40;;;;;;;8.52;5.25;;;;;;;;;;5065527;28;20511;-79
2023/05/05 10:15:08;;;;;;;9.27;5.88;;;;;;;;;;5047291;28;20036;-80
2023/05/05 10:17:44;;;;;;;9.25;4.97;;;;;;;;;;5062233;28;20138;-80
2023/05/05 10:20:12;;;;;;;10.65;4.97;;;;;;;;;;5050826;28;20036;-79
2023/05/05 10:22:42;;;;;;;8.88;4.30;;;;;;;;;;5068110;28;20054;-81
2023/05/05 10:25:13;;;;;;;9.00;4.78;;;;;;;;;;5067017;28;20689;-79
2023/05/05 10:27:49;;;;;;;7.90;4.65;;;;;;;;;;5065202;28;20067;-83
2023/05/05 10:30:21;;;;;;;6.63;4.60;;;;;;;;;;5059079;28;20099;-78
2023/05/05 10:32:50;;;;;;;5.85;4.60;;;;;;;;;;5063270;28;20487;-81
2023/05/05 10:35:23;;;;;;;7.47;5.05;;;;;;;;;;5038883;28;20055;-84
2023/05/05 10:37:49;;;;;;;10.88;4.82;;;;;;;;;;5058425;28;20043;-85
2023/05/05 10:40:20;;;;;;;8.43;4.38;;;;;;;;;;5064423;28;20029;-83
2023/05/05 10:42:47;;;;;;;8.40;4.65;;;;;;;;;;5066101;28;20020;-81
2023/05/05 10:45:13;;;;;;;8.02;4.78;;;;;;;;;;5048731;28;20151;-84
2023/05/05 10:47:45;;;;;;;7.85;4.85;;;;;;;;;;5075024;28;20092;-84
2023/05/05 10:50:43;;;;;;;10.48;4.95;;;;;;;;;;5070824;28;20556;-78
2023/05/05 10:53:42;;;;;;;10.27;5.97;;;;;;;;;;5064343;28;20040;-80
2023/05/05 10:56:34;;;;;;;10.43;4.72;;;;;;;;;;5068028;28;20115;-82
2023/05/05 10:59:00;;;;;;;8.00;5.35;;;;;;;;;;5049967;28;20040;-80
2023/05/05 11:01:34;;;;;;;8.85;5.07;;;;;;;;;;5053517;28;20457;-80
2023/05/05 11:04:22;;;;;;;8.02;4.90;;;;;;;;;;5073118;28;20067;-82
2023/05/05 11:07:12;;;;;;;11.05;4.82;;;;;;;;;;5062195;28;20017;-79
2023/05/05 11:10:00;;;;;;;11.57;5.43;;;;;;;;;;5069229;28;20044;-80
2023/05/05 11:12:28;;;;;;;25.08;7.93;;;;;;;;;;5048019;28;20033;-85
2023/05/05 11:15:19;;;;;;;9.48;4.35;;;;;;;;;;5059562;28;20135;-83
2023/05/05 11:17:45;;;;;;;7.80;4.03;;;;;;;;;;5045702;28;20029;-79
2023/05/05 11:20:11;;;;;;;7.78;4.15;;;;;;;;;;5066470;28;23970;-81
2023/05/05 11:23:04;;;;;;;6.93;3.72;;;;;;;;;;5068302;28;20032;-75
2023/05/05 11:25:39;;;;;;;7.55;3.75;;;;;;;;;;5065700;28;20093;-82
2023/05/05 11:28:10;;;;;;;10.95;4.07;;;;;;;;;;5049533;28;20024;-82
2023/05/05 11:30:54;;;;;;;;;;;;;;;;;;5053069;28;20472;-80
2023/05/05 11:33:37;;;;;;;6.82;4.55;;;;;;;;;;5063605;28;19924;-83
2023/05/05 11:36:10;;;;;;;11.27;5.20;;;;;;;;;;5033941;28;20093;-81
2023/05/05 11:38:55;;;;;;;9.75;3.90;;;;;;;;;;5051318;28;20440;-81
2023/05/05 11:41:29;;;;;;;4.13;3.45;;;;;;;;;;5048668;28;20042;-82
2023/05/05 11:44:34;;;;;;;10.30;3.80;;;;;;;;;;5050895;28;20024;-77
2023/05/05 11:47:12;;;;;;;3.97;3.20;;;;;;;;;;5040692;28;20080;-81
2023/05/05 11:49:40;;;;;;;6.20;4.15;;;;;;;;;;5039264;28;20096;-82
2023/05/05 11:52:13;;;;;;;8.20;3.70;;;;;;;;;;5066311;28;20109;-86
2023/05/05 11:54:50;;;;;;;7.22;3.22;;;;;;;;;;5062052;28;20640;-80
2023/05/05 11:57:20;;;;;;;8.25;4.25;;;;;;;;;;5052554;28;20035;-81
2023/05/05 11:59:53;;;;;;;5.85;3.50;;;;;;;;;;5068344;28;20035;-81
2023/05/05 12:02:19;;;;;;;7.93;3.35;;;;;;;;;;5076613;28;20193;-81
2023/05/05 12:04:47;;;;;;;9.63;3.58;;;;;;;;;;5050604;28;20468;-80
2023/05/05 12:07:17;;;;;;;6.88;3.28;;;;;;;;;;5055378;28;20032;-79
2023/05/05 12:09:44;;;;;;;5.20;3.13;;;;;;;;;;5060289;28;20048;-80
2023/05/05 12:12:12;;;;;;;5.88;3.40;;;;;;;;;;5068623;28;20277;-81
2023/05/05 12:14:51;;;;;;;4.00;2.70;;;;;;;;;;5060724;28;20028;-81
2023/05/05 12:17:22;;;;;;;7.28;3.90;;;;;;;;;;5073266;28;20024;-81
2023/05/05 12:19:55;;;;;;;9.15;3.20;;;;;;;;;;5029334;28;20032;-80
2023/05/05 12:22:25;;;;;;;14.50;3.90;;;;;;;;;;5072075;28;20135;-78
2023/05/05 12:24:58;;;;;;;7.93;2.67;;;;;;;;;;5054608;28;20547;-80
2023/05/05 12:27:25;;;;;;;10.48;3.20;;;;;;;;;;5050043;28;20028;-79
2023/05/05 12:29:55;;;;;;;2.97;2.22;;;;;;;;;;5070396;28;20077;-81
2023/05/05 12:32:23;;;;;;;8.98;3.08;;;;;;;;;;5054235;28;20024;-82
2023/05/05 12:34:56;;;;;;;7.95;2.63;;;;;;;;;;5072220;28;20316;-81
2023/05/05 12:37:24;;;;;;;8.80;2.55;;;;;;;;;;5053163;28;20086;-82
2023/05/05 12:39:50;;;;;;;4.90;2.85;;;;;;;;;;5053458;28;20516;-82
2023/05/05 12:42:16;;;;;;;7.85;3.65;;;;;;;;;;5066310;28;20108;-79
2023/05/05 12:44:43;;;;;;;3.95;2.28;;;;;;;;;;5030714;28;20614;-80
2023/05/05 12:47:10;;;;;;;3.65;2.35;;;;;;;;;;5068174;28;20028;-82
2023/05/05 12:49:50;;;;;;;7.30;2.20;;;;;;;;;;5051590;28;20070;-80
2023/05/05 12:52:16;;;;;;;8.07;2.53;;;;;;;;;;5054223;28;20120;-80
2023/05/05 12:54:55;;;;;;;9.57;2.83;;;;;;;;;;5062052;28;20033;-80
2023/05/05 12:57:21;;;;;;;6.95;2.40;;;;;;;;;;5054683;28;20024;-80
2023/05/05 12:59:47;;;;;;;4.88;2.60;;;;;;;;;;5050859;28;20059;-81
2023/05/05 13:02:13;;;;;;;5.03;2.25;;;;;;;;;;5069658;28;20032;-81
2023/05/05 13:04:49;;;;;;;4.65;2.15;;;;;;;;;;5055877;28;20139;-81
2023/05/05 13:07:16;;;;;;;4.00;2.15;;;;;;;;;;5078111;28;20030;-82
2023/05/05 13:09:42;;;;;;;5.13;2.13;;;;;;;;;;5074632;28;20024;-84
2023/05/05 13:12:10;;;;;;;7.07;2.33;;;;;;;;;;5069957;28;20029;-82
2023/05/05 13:14:36;;;;;;;6.45;2.65;;;;;;;;;;5062947;28;20036;-81
2023/05/05 13:17:02;;;;;;;2.67;2.20;;;;;;;;;;5080316;28;20024;-81
2023/05/05 13:19:28;;;;;;;5.82;2.72;;;;;;;;;;5052426;28;20127;-80
2023/05/05 13:21:55;;;;;;;6.80;3.40;;;;;;;;;;5031615;28;20094;-82
2023/05/05 13:24:21;;;;;;;9.05;2.72;;;;;;;;;;5076594;28;20020;-80
2023/05/05 13:26:47;;;;;;;5.88;2.70;;;;;;;;;;5071503;28;20062;-80
2023/05/05 13:29:12;;;;;;;3.60;1.92;;;;;;;;;;5054590;28;20044;-79
2023/05/05 13:31:38;;;;;;;8.73;2.28;;;;;;;;;;5071662;28;20168;-80
2023/05/05 13:34:04;;;;;;;5.00;2.67;;;;;;;;;;5072085;28;20088;-82
2023/05/05 13:36:30;;;;;;;5.75;1.83;;;;;;;;;;5080969;28;20059;-83
2023/05/05 13:38:56;;;;;;;6.15;2.00;;;;;;;;;;5042593;28;20040;-80
2023/05/05 13:41:22;;;;;;;4.60;2.15;;;;;;;;;;5061658;28;20025;-81
2023/05/05 13:43:48;;;;;;;3.08;2.47;;;;;;;;;;5077235;28;20059;-81
2023/05/05 13:46:14;;;;;;;3.88;2.40;;;;;;;;;;5080556;28;20031;-82
2023/05/05 13:48:40;;;;;;;8.75;2.33;;;;;;;;;;5072684;28;20021;-81
2023/05/05 13:51:06;;;;;;;4.57;2.17;;;;;;;;;;5043791;28;20086;-82
2023/05/05 13:53:33;;;;;;;9.10;2.22;;;;;;;;;;5072051;28;20049;-79
2023/05/05 13:55:59;;;;;;;5.32;2.70;;;;;;;;;;5037038;28;20040;-80
2023/05/05 13:58:25;;;;;;;7.50;2.40;;;;;;;;;;5077191;28;20025;-81
2023/05/05 14:00:51;;;;;;;18.10;11.90;;;;;;;;;;5071713;28;20035;-82
2023/05/05 14:03:16;;;;;;;9.82;2.72;;;;;;;;;;5059513;28;20032;-79
2023/05/05 14:05:42;;;;;;;4.38;1.95;;;;;;;;;;5073572;28;20051;-81
2023/05/05 14:08:08;;;;;;;4.10;2.50;;;;;;;;;;5069293;28;20056;-79
2023/05/05 14:10:34;;;;;;;3.67;2.00;;;;;;;;;;5076851;28;20112;-80
2023/05/05 14:13:00;;;;;;;5.05;2.13;;;;;;;;;;5076944;28;20032;-79
2023/05/05 14:15:27;;;;;;;55.30;5.63;;;;;;;;;;5055170;28;20028;-79
2023/05/05 14:17:53;;;;;;;5.35;2.60;;;;;;;;;;5072553;28;20106;-80
2023/05/05 14:20:18;;;;;;;5.60;3.15;;;;;;;;;;5052081;28;20028;-81
2023/05/05 14:22:44;;;;;;;17.77;3.83;;;;;;;;;;5061609;28;20012;-79
2023/05/05 14:25:12;;;;;;;6.93;2.40;;;;;;;;;;5069444;28;20033;-81
2023/05/05 14:27:37;;;;;;;5.80;2.40;;;;;;;;;;5051423;28;20024;-79
2023/05/05 14:30:03;;;;;;;15.57;3.30;;;;;;;;;;5069835;28;20028;-80
2023/05/05 14:32:29;;;;;;;4.80;2.45;;;;;;;;;;5061612;28;20127;-80
2023/05/05 14:34:55;;;;;;;6.15;2.20;;;;;;;;;;5072011;28;20028;-79
2023/05/05 14:37:21;;;;;;;3.70;2.10;;;;;;;;;;5059721;28;20341;-79
2023/05/05 14:39:46;;;;;;;2.65;2.42;;;;;;;;;;5079797;28;20380;-81
2023/05/05 14:42:12;;;;;;;5.43;2.30;;;;;;;;;;5096184;28;20039;-82
2023/05/05 14:44:37;;;;;;;6.65;1.77;;;;;;;;;;5082674;28;20025;-82